createdAt,value
2023-02-20T00:01:11.457Z,7.28
2023-02-20T00:03:40.957Z,7.26
2023-02-20T00:06:12.965Z,7.30
2023-02-20T00:08:46.597Z,7.24
2023-02-20T00:11:16.543Z,7.17
2023-02-20T00:13:46.925Z,7.09
2023-02-20T00:16:14.770Z,7.12
2023-02-20T00:18:45.799Z,7.15
2023-02-20T00:21:13.890Z,7.06
2023-02-20T00:23:41.555Z,6.98
2023-02-20T00:26:10.867Z,7.10
2023-02-20T00:28:42.810Z,7.17
2023-02-20T00:31:14.707Z,6.97
2023-02-20T00:33:44.062Z,7.01
2023-02-20T00:36:19.030Z,6.87
2023-02-20T00:38:47.294Z,6.99
2023-02-20T00:41:15.572Z,6.87
2023-02-20T00:43:43.286Z,6.91
2023-02-20T00:46:13.152Z,6.63
2023-02-20T00:48:41.074Z,6.64
2023-02-20T00:51:10.006Z,6.58
2023-02-20T00:53:37.660Z,6.49
2023-02-20T00:56:05.585Z,6.45
2023-02-20T00:58:33.211Z,6.29
2023-02-20T01:01:00.812Z,6.21
2023-02-20T01:03:28.622Z,6.26
2023-02-20T01:05:56.258Z,6.23
2023-02-20T01:08:25.277Z,6.10
2023-02-20T01:10:52.878Z,6.14
2023-02-20T01:13:20.777Z,6.00
2023-02-20T01:15:48.468Z,5.98
2023-02-20T01:18:16.096Z,5.94
2023-02-20T01:20:43.713Z,5.95
2023-02-20T01:23:11.520Z,5.88
2023-02-20T01:25:40.527Z,5.84
2023-02-20T01:28:08.240Z,5.91
2023-02-20T01:30:35.906Z,5.88
2023-02-20T01:33:03.758Z,5.85
2023-02-20T01:35:32.122Z,5.88
2023-02-20T01:38:00.108Z,6.06
2023-02-20T01:40:29.175Z,5.95
2023-02-20T01:42:58.053Z,5.80
2023-02-20T01:45:43.458Z,5.98
2023-02-20T01:48:20.394Z,5.99
2023-02-20T01:50:48.493Z,6.09
2023-02-20T01:53:18.480Z,6.01
2023-02-20T01:55:49.565Z,6.07
2023-02-20T01:58:21.937Z,5.93
2023-02-20T02:00:49.536Z,5.82
2023-02-20T02:03:19.774Z,5.76
2023-02-20T02:05:48.585Z,5.80
2023-02-20T02:08:18.024Z,5.82
2023-02-20T02:10:50.467Z,5.93
2023-02-20T02:13:19.625Z,5.79
2023-02-20T02:15:47.331Z,5.61
2023-02-20T02:18:36.131Z,5.54
2023-02-20T02:21:33.548Z,5.45
2023-02-20T02:24:38.888Z,5.43
2023-02-20T02:27:31.556Z,5.36
2023-02-20T02:30:18.176Z,5.22
2023-02-20T02:33:06.091Z,5.10
2023-02-20T02:36:12.888Z,5.13
2023-02-20T02:38:45.243Z,5.26
2023-02-20T02:41:19.536Z,5.11
2023-02-20T02:43:52.642Z,5.23
2023-02-20T02:46:24.292Z,5.01
2023-02-20T02:48:55.389Z,5.12
2023-02-20T02:51:27.058Z,5.07
2023-02-20T02:54:10.629Z,5.16
2023-02-20T02:56:40.586Z,5.03
2023-02-20T02:59:11.016Z,5.02
2023-02-20T03:01:42.014Z,5.02
2023-02-20T03:04:11.626Z,5.07
2023-02-20T03:06:40.861Z,5.08
2023-02-20T03:09:12.026Z,5.07
2023-02-20T03:11:40.837Z,5.11
2023-02-20T03:14:29.353Z,5.14
2023-02-20T03:17:01.078Z,5.10
2023-02-20T03:19:32.573Z,5.03
2023-02-20T03:22:01.725Z,5.13
2023-02-20T03:24:32.461Z,5.15
2023-02-20T03:27:00.521Z,5.10
2023-02-20T03:29:31.539Z,4.93
2023-02-20T03:32:20.577Z,5.01
2023-02-20T03:35:07.111Z,5.07
2023-02-20T03:37:54.072Z,5.09
2023-02-20T03:40:41.695Z,5.23
2023-02-20T03:43:25.077Z,4.99
2023-02-20T03:45:53.553Z,4.88
2023-02-20T03:48:27.299Z,4.99
2023-02-20T03:51:12.540Z,4.83
2023-02-20T03:53:40.408Z,5.04
2023-02-20T03:56:12.050Z,4.94
2023-02-20T03:58:42.329Z,4.82
2023-02-20T04:01:11.308Z,4.81
2023-02-20T04:03:41.557Z,4.68
2023-02-20T04:06:10.630Z,4.56
2023-02-20T04:08:40.691Z,4.71
2023-02-20T04:11:11.662Z,4.80
2023-02-20T04:13:40.087Z,4.73
2023-02-20T04:16:08.813Z,4.74
2023-02-20T04:18:36.817Z,4.56
2023-02-20T04:21:08.643Z,4.74
2023-02-20T04:23:39.824Z,4.83
2023-02-20T04:26:11.320Z,4.76
2023-02-20T04:28:39.355Z,4.70
2023-02-20T04:31:07.100Z,4.62
2023-02-20T04:33:34.823Z,4.73
2023-02-20T04:36:02.468Z,4.78
2023-02-20T04:38:30.158Z,4.63
2023-02-20T04:40:57.824Z,4.66
2023-02-20T04:43:26.789Z,4.48
2023-02-20T04:45:54.388Z,4.53
2023-02-20T04:48:22.190Z,4.58
2023-02-20T04:50:49.905Z,4.54
2023-02-20T04:53:17.498Z,4.55
2023-02-20T04:55:45.080Z,4.51
2023-02-20T04:58:12.655Z,4.53
2023-02-20T05:00:41.647Z,4.47
2023-02-20T05:03:09.286Z,4.39
2023-02-20T05:05:36.927Z,4.33
2023-02-20T05:08:06.349Z,4.45
2023-02-20T05:10:35.013Z,4.54
2023-02-20T05:13:03.121Z,4.21
2023-02-20T05:15:32.182Z,4.35
2023-02-20T05:18:01.139Z,4.16
2023-02-20T05:20:43.158Z,4.36
2023-02-20T05:23:10.861Z,4.33
2023-02-20T05:25:38.851Z,4.35
2023-02-20T05:28:06.787Z,4.22
2023-02-20T05:30:34.519Z,4.40
2023-02-20T05:33:03.582Z,4.36
2023-02-20T05:35:31.195Z,4.33
2023-02-20T05:37:58.801Z,4.31
2023-02-20T05:40:26.500Z,4.24
2023-02-20T05:42:54.092Z,4.17
2023-02-20T05:45:21.775Z,4.22
2023-02-20T05:47:49.571Z,4.18
2023-02-20T05:50:18.898Z,4.39
2023-02-20T05:52:46.884Z,4.35
2023-02-20T05:55:14.520Z,4.39
2023-02-20T05:57:42.137Z,4.36
2023-02-20T06:00:11.090Z,4.40
2023-02-20T06:02:38.740Z,4.42
2023-02-20T06:05:07.617Z,4.44
2023-02-20T06:07:37.400Z,4.52
2023-02-20T06:10:05.582Z,4.32
2023-02-20T06:12:33.163Z,4.50
2023-02-20T06:15:00.777Z,4.48
2023-02-20T06:17:29.722Z,4.52
2023-02-20T06:19:57.440Z,4.52
2023-02-20T06:22:25.219Z,4.57
2023-02-20T06:24:54.125Z,4.50
2023-02-20T06:27:21.757Z,4.50
2023-02-20T06:29:49.355Z,4.58
2023-02-20T06:32:17.541Z,4.53
2023-02-20T06:34:45.850Z,4.54
2023-02-20T06:37:13.922Z,4.47
2023-02-20T06:39:43.084Z,4.52
2023-02-20T06:42:12.079Z,4.44
2023-02-20T06:44:39.779Z,4.52
2023-02-20T06:47:09.043Z,4.45
2023-02-20T06:49:36.689Z,4.44
2023-02-20T06:52:05.461Z,4.39
2023-02-20T06:54:33.899Z,4.49
2023-02-20T06:57:02.233Z,4.45
2023-02-20T06:59:31.201Z,4.40
2023-02-20T07:01:58.959Z,4.44
2023-02-20T07:04:28.020Z,4.47
2023-02-20T07:06:56.529Z,4.49
2023-02-20T07:09:25.283Z,4.50
2023-02-20T07:11:53.434Z,4.49
2023-02-20T07:14:21.202Z,4.42
2023-02-20T07:16:50.317Z,4.72
2023-02-20T07:19:18.041Z,4.78
2023-02-20T07:21:47.540Z,4.86
2023-02-20T07:24:15.231Z,4.88
2023-02-20T07:26:42.916Z,4.93
2023-02-20T07:29:10.928Z,4.92
2023-02-20T07:31:39.186Z,4.97
2023-02-20T07:34:08.334Z,5.06
2023-02-20T07:36:36.224Z,4.99
2023-02-20T07:39:06.639Z,5.23
2023-02-20T07:41:34.994Z,5.37
2023-02-20T07:44:02.631Z,5.52
2023-02-20T07:46:33.678Z,5.59
2023-02-20T07:49:02.069Z,5.70
2023-02-20T07:51:31.372Z,5.98
2023-02-20T07:53:59.052Z,6.27
2023-02-20T07:56:26.745Z,6.49
2023-02-20T07:58:54.344Z,6.59
2023-02-20T08:01:21.981Z,6.84
2023-02-20T08:03:49.737Z,6.91
2023-02-20T08:06:18.096Z,7.01
2023-02-20T08:08:50.334Z,7.06
2023-02-20T08:11:18.568Z,7.17
2023-02-20T08:13:46.553Z,7.18
2023-02-20T08:16:14.573Z,7.22
2023-02-20T08:18:42.358Z,7.29
2023-02-20T08:21:09.988Z,7.16
2023-02-20T08:23:37.676Z,7.34
2023-02-20T08:26:07.056Z,7.55
2023-02-20T08:28:34.754Z,7.52
2023-02-20T08:31:02.630Z,7.49
2023-02-20T08:33:30.414Z,7.48
2023-02-20T08:35:58.096Z,7.49
2023-02-20T08:38:30.228Z,7.49
2023-02-20T08:40:58.283Z,7.41
2023-02-20T08:43:28.275Z,7.45
2023-02-20T08:45:56.367Z,7.36
2023-02-20T08:48:24.108Z,7.30
2023-02-20T08:50:51.925Z,7.37
2023-02-20T08:53:19.572Z,7.05
2023-02-20T08:55:47.258Z,7.20
2023-02-20T08:58:15.014Z,7.19
2023-02-20T09:00:44.548Z,7.20
2023-02-20T09:03:12.311Z,7.43
2023-02-20T09:05:40.077Z,7.73
2023-02-20T09:08:07.696Z,7.95
2023-02-20T09:10:35.348Z,8.29
2023-02-20T09:13:03.122Z,8.42
2023-02-20T09:15:31.806Z,8.48
2023-02-20T09:18:00.795Z,8.66
2023-02-20T09:20:28.347Z,8.98
2023-02-20T09:22:58.736Z,8.97
2023-02-20T09:25:26.409Z,9.03
2023-02-20T09:27:54.086Z,9.07
2023-02-20T09:30:22.907Z,9.17
2023-02-20T09:32:51.306Z,9.36
2023-02-20T09:35:22.555Z,9.53
2023-02-20T09:37:50.331Z,9.56
2023-02-20T09:40:18.805Z,9.72
2023-02-20T09:42:54.746Z,9.77
2023-02-20T09:45:24.131Z,9.82
2023-02-20T09:48:07.308Z,10.04
2023-02-20T09:50:38.770Z,10.08
2023-02-20T09:53:17.555Z,10.01
2023-02-20T09:55:45.394Z,10.14
2023-02-20T09:58:21.164Z,10.18
2023-02-20T10:00:48.870Z,10.49
2023-02-20T10:03:22.374Z,10.60
2023-02-20T10:05:51.445Z,10.61
2023-02-20T10:08:21.374Z,10.76
2023-02-20T10:10:51.136Z,10.76
2023-02-20T10:13:32.901Z,10.63
2023-02-20T10:16:04.912Z,10.84
2023-02-20T10:18:37.988Z,10.84
2023-02-20T10:21:12.609Z,11.04
2023-02-20T10:23:49.384Z,11.19
2023-02-20T10:26:28.267Z,11.08
2023-02-20T10:28:57.586Z,11.11
2023-02-20T10:31:31.045Z,11.31
2023-02-20T10:34:02.394Z,11.52
2023-02-20T10:36:37.569Z,11.69
2023-02-20T10:39:08.340Z,11.53
2023-02-20T10:41:39.883Z,11.54
2023-02-20T10:44:13.071Z,11.72
2023-02-20T10:46:49.279Z,11.80
2023-02-20T10:49:21.005Z,11.67
2023-02-20T10:51:52.612Z,12.05
2023-02-20T10:54:24.401Z,11.88
2023-02-20T10:56:56.695Z,12.04
2023-02-20T10:59:27.279Z,12.03
2023-02-20T11:01:57.287Z,12.13
2023-02-20T11:04:28.320Z,12.00
2023-02-20T11:07:02.110Z,12.10
2023-02-20T11:09:35.944Z,12.02
2023-02-20T11:12:03.797Z,12.31
2023-02-20T11:14:40.635Z,12.64
2023-02-20T11:17:10.571Z,12.35
2023-02-20T11:19:41.834Z,12.55
2023-02-20T11:22:10.927Z,12.59
2023-02-20T11:24:39.936Z,12.66
2023-02-20T11:27:10.872Z,12.66
2023-02-20T11:29:42.504Z,12.62
2023-02-20T11:32:30.530Z,12.72
2023-02-20T11:35:16.645Z,12.65
2023-02-20T11:37:54.855Z,12.83
2023-02-20T11:40:28.649Z,12.79
2023-02-20T11:42:56.473Z,12.85
2023-02-20T11:45:25.692Z,13.04
2023-02-20T11:48:13.237Z,12.91
2023-02-20T11:50:42.539Z,13.17
2023-02-20T11:53:20.041Z,13.09
2023-02-20T11:55:59.512Z,13.15
2023-02-20T11:58:29.264Z,13.05
2023-02-20T12:00:57.184Z,13.03
2023-02-20T12:03:28.248Z,13.07
2023-02-20T12:05:57.135Z,13.03
2023-02-20T12:08:53.861Z,13.04
2023-02-20T12:11:22.673Z,13.22
2023-02-20T12:13:52.799Z,13.22
2023-02-20T12:16:58.779Z,13.22
2023-02-20T12:19:30.536Z,13.15
2023-02-20T12:22:02.715Z,13.16
2023-02-20T12:24:43.604Z,13.12
2023-02-20T12:27:27.234Z,13.28
2023-02-20T12:29:58.973Z,13.34
2023-02-20T12:32:36.549Z,13.30
2023-02-20T12:35:13.416Z,13.51
2023-02-20T12:37:48.789Z,13.39
2023-02-20T12:40:35.451Z,13.49
2023-02-20T12:43:11.470Z,13.42
2023-02-20T12:45:41.951Z,13.40
2023-02-20T12:48:21.886Z,13.55
2023-02-20T12:50:58.061Z,13.44
2023-02-20T12:53:35.452Z,13.47
2023-02-20T12:56:22.012Z,13.48
2023-02-20T12:58:55.724Z,13.50
2023-02-20T13:01:38.399Z,13.56
2023-02-20T13:04:18.478Z,13.50
2023-02-20T13:06:51.382Z,13.42
2023-02-20T13:09:22.972Z,13.51
2023-02-20T13:11:54.665Z,13.71
2023-02-20T13:14:32.073Z,13.85
2023-02-20T13:17:08.007Z,13.75
2023-02-20T13:19:41.515Z,13.72
2023-02-20T13:22:09.623Z,13.80
2023-02-20T13:24:38.312Z,13.92
2023-02-20T13:27:08.557Z,14.04
2023-02-20T13:29:38.004Z,13.78
2023-02-20T13:32:23.987Z,13.72
2023-02-20T13:34:51.644Z,13.89
2023-02-20T13:37:54.409Z,13.87
2023-02-20T13:40:43.371Z,13.80
2023-02-20T13:43:27.267Z,13.93
2023-02-20T13:46:24.865Z,13.96
2023-02-20T13:48:54.664Z,13.89
2023-02-20T13:51:32.681Z,13.79
2023-02-20T13:54:11.620Z,13.67
2023-02-20T13:56:48.590Z,13.96
2023-02-20T13:59:19.761Z,13.73
2023-02-20T14:02:13.939Z,13.67
2023-02-20T14:04:53.131Z,13.65
2023-02-20T14:07:28.764Z,13.50
2023-02-20T14:10:01.540Z,13.57
2023-02-20T14:12:29.154Z,13.52
2023-02-20T14:14:58.434Z,13.77
2023-02-20T14:17:26.224Z,13.78
2023-02-20T14:20:08.606Z,13.76
2023-02-20T14:22:40.953Z,13.75
2023-02-20T14:25:29.710Z,13.54
2023-02-20T14:28:14.909Z,13.51
2023-02-20T14:30:44.146Z,13.55
2023-02-20T14:33:25.826Z,13.63
2023-02-20T14:36:19.305Z,13.50
2023-02-20T14:39:11.182Z,13.57
2023-02-20T14:41:38.932Z,13.48
2023-02-20T14:44:15.866Z,13.52
2023-02-20T14:46:44.819Z,13.42
2023-02-20T14:49:14.450Z,13.42
2023-02-20T14:51:42.277Z,13.46
2023-02-20T14:54:19.735Z,13.41
2023-02-20T14:56:48.261Z,13.33
2023-02-20T14:59:27.130Z,13.40
2023-02-20T15:01:58.425Z,13.37
2023-02-20T15:04:26.875Z,13.33
2023-02-20T15:06:56.519Z,13.39
2023-02-20T15:09:24.298Z,13.39
2023-02-20T15:11:53.281Z,13.29
2023-02-20T15:14:23.319Z,13.20
2023-02-20T15:17:07.791Z,13.31
2023-02-20T15:19:38.277Z,13.19
2023-02-20T15:22:06.305Z,13.12
2023-02-20T15:24:41.641Z,13.12
2023-02-20T15:27:14.784Z,13.18
2023-02-20T15:29:43.578Z,12.98
2023-02-20T15:32:22.218Z,12.88
2023-02-20T15:34:52.712Z,12.98
2023-02-20T15:37:30.039Z,12.92
2023-02-20T15:40:19.263Z,12.80
2023-02-20T15:42:46.917Z,12.85
2023-02-20T15:45:14.833Z,12.77
2023-02-20T15:47:43.828Z,12.72
2023-02-20T15:50:11.518Z,12.69
2023-02-20T15:52:39.126Z,12.79
2023-02-20T15:55:07.408Z,12.76
2023-02-20T15:57:34.988Z,12.68
2023-02-20T16:00:02.724Z,12.68
2023-02-20T16:02:33.018Z,12.48
2023-02-20T16:05:01.981Z,12.49
2023-02-20T16:07:29.883Z,12.48
2023-02-20T16:09:57.483Z,12.43
2023-02-20T16:12:26.856Z,12.36
2023-02-20T16:14:54.512Z,12.25
2023-02-20T16:17:25.014Z,12.24
2023-02-20T16:19:52.721Z,12.10
2023-02-20T16:22:21.735Z,11.92
2023-02-20T16:24:49.443Z,11.92
2023-02-20T16:27:24.744Z,11.81
2023-02-20T16:29:52.845Z,11.64
2023-02-20T16:32:25.353Z,11.57
2023-02-20T16:34:53.760Z,11.49
2023-02-20T16:37:23.292Z,11.38
2023-02-20T16:39:51.050Z,11.28
2023-02-20T16:42:24.721Z,11.13
2023-02-20T16:44:55.032Z,11.11
2023-02-20T16:47:24.966Z,11.06
2023-02-20T16:49:52.926Z,10.90
2023-02-20T16:52:25.711Z,10.76
2023-02-20T16:54:54.242Z,10.73
2023-02-20T16:57:24.500Z,10.51
2023-02-20T16:59:55.568Z,10.44
2023-02-20T17:02:25.045Z,10.33
2023-02-20T17:04:52.675Z,10.32
2023-02-20T17:07:20.470Z,10.18
2023-02-20T17:09:49.643Z,10.23
2023-02-20T17:12:19.816Z,10.16
2023-02-20T17:14:47.614Z,10.09
2023-02-20T17:17:15.858Z,9.96
2023-02-20T17:19:44.443Z,9.97
2023-02-20T17:22:12.877Z,9.98
2023-02-20T17:24:42.258Z,9.92
2023-02-20T17:27:12.801Z,10.10
2023-02-20T17:29:40.732Z,9.84
2023-02-20T17:32:08.422Z,9.61
2023-02-20T17:34:36.032Z,9.76
2023-02-20T17:37:03.727Z,9.64
2023-02-20T17:39:31.352Z,9.45
2023-02-20T17:41:59.170Z,9.51
2023-02-20T17:44:30.544Z,9.35
2023-02-20T17:47:00.057Z,9.35
2023-02-20T17:49:28.763Z,9.29
2023-02-20T17:51:59.064Z,9.28
2023-02-20T17:54:27.228Z,9.25
2023-02-20T17:56:55.596Z,9.30
2023-02-20T17:59:24.364Z,9.43
2023-02-20T18:01:53.418Z,9.32
2023-02-20T18:04:21.525Z,9.25
2023-02-20T18:06:49.314Z,9.27
2023-02-20T18:09:18.805Z,9.17
2023-02-20T18:11:46.596Z,9.00
2023-02-20T18:14:15.022Z,8.89
2023-02-20T18:16:42.920Z,8.92
2023-02-20T18:19:13.718Z,8.97
2023-02-20T18:21:43.277Z,8.97
2023-02-20T18:24:11.023Z,8.90
2023-02-20T18:26:39.176Z,8.91
2023-02-20T18:29:06.904Z,8.90
2023-02-20T18:31:34.649Z,8.86
2023-02-20T18:34:03.524Z,8.82
2023-02-20T18:36:32.460Z,8.68
2023-02-20T18:39:00.261Z,8.60
2023-02-20T18:41:28.546Z,8.63
2023-02-20T18:43:56.176Z,8.55
2023-02-20T18:46:28.341Z,8.14
2023-02-20T18:48:56.256Z,8.38
2023-02-20T18:51:28.535Z,8.32
2023-02-20T18:53:57.628Z,8.16
2023-02-20T18:56:26.086Z,8.26
2023-02-20T18:58:55.050Z,8.17
2023-02-20T19:01:23.250Z,8.07
2023-02-20T19:03:52.781Z,8.05
2023-02-20T19:06:27.856Z,8.00
2023-02-20T19:08:57.018Z,7.98
2023-02-20T19:11:24.626Z,7.95
2023-02-20T19:13:52.403Z,7.91
2023-02-20T19:16:20.440Z,7.89
2023-02-20T19:18:50.815Z,8.03
2023-02-20T19:21:19.373Z,7.93
2023-02-20T19:23:47.903Z,7.97
2023-02-20T19:26:17.268Z,8.05
2023-02-20T19:28:44.992Z,8.01
2023-02-20T19:31:13.631Z,8.15
2023-02-20T19:33:42.008Z,8.01
2023-02-20T19:36:10.722Z,8.15
2023-02-20T19:38:39.314Z,8.21
2023-02-20T19:41:07.056Z,8.28
2023-02-20T19:43:35.971Z,8.20
2023-02-20T19:46:03.654Z,8.15
2023-02-20T19:48:31.380Z,8.02
2023-02-20T19:50:59.014Z,8.07
2023-02-20T19:53:26.684Z,8.05
2023-02-20T19:55:54.702Z,8.05
2023-02-20T19:58:22.368Z,8.05
2023-02-20T20:00:51.422Z,8.09
2023-02-20T20:03:19.120Z,8.10
2023-02-20T20:05:46.805Z,8.14
2023-02-20T20:08:14.501Z,8.11
2023-02-20T20:10:42.207Z,8.10
2023-02-20T20:13:09.758Z,8.00
2023-02-20T20:15:37.857Z,7.98
2023-02-20T20:18:07.482Z,7.89
2023-02-20T20:20:36.457Z,7.70
2023-02-20T20:23:05.949Z,7.56
2023-02-20T20:25:33.805Z,7.49
2023-02-20T20:28:02.093Z,7.47
2023-02-20T20:30:32.410Z,7.41
2023-02-20T20:33:00.141Z,7.26
2023-02-20T20:35:30.643Z,7.42
2023-02-20T20:37:58.311Z,7.34
2023-02-20T20:40:27.030Z,7.16
2023-02-20T20:42:55.003Z,7.20
2023-02-20T20:45:24.277Z,7.09
2023-02-20T20:47:51.876Z,7.05
2023-02-20T20:50:21.158Z,7.07
2023-02-20T20:52:50.678Z,6.95
2023-02-20T20:55:18.605Z,7.03
2023-02-20T20:57:46.205Z,7.05
2023-02-20T21:00:21.094Z,7.04
2023-02-20T21:02:48.721Z,6.87
2023-02-20T21:05:16.654Z,6.84
2023-02-20T21:07:44.300Z,6.96
2023-02-20T21:10:13.494Z,6.99
2023-02-20T21:12:41.215Z,7.00
2023-02-20T21:15:10.287Z,7.01
2023-02-20T21:17:37.951Z,7.03
2023-02-20T21:20:07.848Z,7.00
2023-02-20T21:22:35.471Z,7.05
2023-02-20T21:25:03.735Z,7.06
2023-02-20T21:27:32.716Z,7.10
2023-02-20T21:30:00.329Z,7.07
2023-02-20T21:32:29.755Z,7.20
2023-02-20T21:34:57.637Z,7.22
2023-02-20T21:37:25.382Z,7.22
2023-02-20T21:39:54.330Z,7.25
2023-02-20T21:42:39.696Z,7.22
2023-02-20T21:45:09.122Z,7.21
2023-02-20T21:47:36.954Z,7.21
2023-02-20T21:50:06.262Z,7.30
2023-02-20T21:52:36.840Z,7.25
2023-02-20T21:55:06.589Z,7.22
2023-02-20T21:57:36.316Z,7.19
2023-02-20T22:00:03.748Z,7.31
2023-02-20T22:02:31.596Z,7.35
2023-02-20T22:04:58.192Z,7.35
2023-02-20T22:07:44.735Z,7.37
2023-02-20T22:10:30.593Z,7.42
2023-02-20T22:13:16.464Z,7.49
2023-02-20T22:16:02.106Z,7.43
2023-02-20T22:18:49.287Z,7.57
2023-02-20T22:21:38.968Z,7.47
2023-02-20T22:24:37.305Z,7.49
2023-02-20T22:27:24.248Z,7.58
2023-02-20T22:30:10.022Z,7.60
2023-02-20T22:32:55.736Z,7.58
2023-02-20T22:35:42.876Z,7.66
2023-02-20T22:38:28.740Z,7.67
2023-02-20T22:41:15.186Z,7.65
2023-02-20T22:44:01.032Z,7.63
2023-02-20T22:46:46.901Z,7.65
2023-02-20T22:49:32.736Z,7.67
2023-02-20T22:52:19.831Z,7.73
2023-02-20T22:55:08.123Z,7.71
2023-02-20T22:57:54.153Z,7.71
2023-02-20T23:00:40.155Z,7.65
2023-02-20T23:03:29.899Z,7.65
2023-02-20T23:06:18.479Z,7.60
2023-02-20T23:09:07.262Z,7.58
2023-02-20T23:11:54.102Z,7.53
2023-02-20T23:14:39.954Z,7.42
2023-02-20T23:17:35.546Z,7.46
2023-02-20T23:20:22.620Z,7.53
2023-02-20T23:23:08.011Z,7.43
2023-02-20T23:25:55.028Z,7.44
2023-02-20T23:28:40.695Z,7.49
2023-02-20T23:31:26.294Z,7.47
2023-02-20T23:34:12.311Z,7.41
2023-02-20T23:37:04.181Z,7.33
2023-02-20T23:39:50.305Z,7.36
2023-02-20T23:42:37.507Z,7.32
2023-02-20T23:45:24.327Z,7.21
2023-02-20T23:48:10.101Z,7.22
2023-02-20T23:50:55.689Z,7.17
2023-02-20T23:53:41.343Z,7.17
2023-02-20T23:56:30.492Z,7.20
2023-02-20T23:59:17.189Z,7.29
